sensor_id;sensor_type;location;lat;lon;timestamp;P1;durP1;ratioP1;P2;durP2;ratioP2
75928;SDS011;64606;44.062;2.986;2023-09-19T00:01:19;6.88;;;1.40;;
75928;SDS011;64606;44.062;2.986;2023-09-19T00:03:45;3.70;;;1.17;;
75928;SDS011;64606;44.062;2.986;2023-09-19T00:06:12;2.58;;;1.20;;
75928;SDS011;64606;44.062;2.986;2023-09-19T00:08:41;4.82;;;1.17;;
75928;SDS011;64606;44.062;2.986;2023-09-19T00:11:10;2.58;;;0.82;;
75928;SDS011;64606;44.062;2.986;2023-09-19T00:13:36;5.18;;;1.10;;
75928;SDS011;64606;44.062;2.986;2023-09-19T00:16:11;7.07;;;1.13;;
75928;SDS011;64606;44.062;2.986;2023-09-19T00:18:38;5.22;;;1.38;;
75928;SDS011;64606;44.062;2.986;2023-09-19T00:21:04;6.30;;;1.23;;
75928;SDS011;64606;44.062;2.986;2023-09-19T00:23:30;4.55;;;1.33;;
75928;SDS011;64606;44.062;2.986;2023-09-19T00:25:58;2.92;;;1.30;;
75928;SDS011;64606;44.062;2.986;2023-09-19T00:28:25;4.63;;;1.02;;
75928;SDS011;64606;44.062;2.986;2023-09-19T00:30:51;3.30;;;1.55;;
75928;SDS011;64606;44.062;2.986;2023-09-19T00:33:20;5.43;;;1.20;;
75928;SDS011;64606;44.062;2.986;2023-09-19T00:35:47;4.85;;;1.35;;
75928;SDS011;64606;44.062;2.986;2023-09-19T00:38:13;4.65;;;1.38;;
75928;SDS011;64606;44.062;2.986;2023-09-19T00:40:45;6.60;;;1.50;;
75928;SDS011;64606;44.062;2.986;2023-09-19T00:43:11;4.28;;;1.20;;
75928;SDS011;64606;44.062;2.986;2023-09-19T00:45:37;5.13;;;1.50;;
75928;SDS011;64606;44.062;2.986;2023-09-19T00:48:04;4.85;;;1.30;;
75928;SDS011;64606;44.062;2.986;2023-09-19T00:50:34;6.63;;;1.00;;
75928;SDS011;64606;44.062;2.986;2023-09-19T00:53:01;5.68;;;1.42;;
75928;SDS011;64606;44.062;2.986;2023-09-19T00:55:33;4.43;;;1.10;;
75928;SDS011;64606;44.062;2.986;2023-09-19T00:58:00;6.78;;;1.33;;
75928;SDS011;64606;44.062;2.986;2023-09-19T01:00:26;4.30;;;1.20;;
75928;SDS011;64606;44.062;2.986;2023-09-19T01:02:52;4.47;;;1.20;;
75928;SDS011;64606;44.062;2.986;2023-09-19T01:05:21;6.57;;;1.23;;
75928;SDS011;64606;44.062;2.986;2023-09-19T01:07:49;2.65;;;0.90;;
75928;SDS011;64606;44.062;2.986;2023-09-19T01:10:16;4.03;;;1.23;;
75928;SDS011;64606;44.062;2.986;2023-09-19T01:20:38;4.78;;;1.17;;
75928;SDS011;64606;44.062;2.986;2023-09-19T01:23:14;7.93;;;1.55;;
75928;SDS011;64606;44.062;2.986;2023-09-19T01:28:43;3.85;;;1.25;;
75928;SDS011;64606;44.062;2.986;2023-09-19T01:31:19;2.53;;;1.13;;
75928;SDS011;64606;44.062;2.986;2023-09-19T01:36:25;12.05;;;1.42;;
75928;SDS011;64606;44.062;2.986;2023-09-19T01:38:51;6.15;;;1.40;;
75928;SDS011;64606;44.062;2.986;2023-09-19T01:41:21;4.95;;;1.13;;
75928;SDS011;64606;44.062;2.986;2023-09-19T01:43:50;3.72;;;1.00;;
75928;SDS011;64606;44.062;2.986;2023-09-19T01:46:19;5.55;;;1.30;;
75928;SDS011;64606;44.062;2.986;2023-09-19T01:48:49;3.45;;;1.20;;
75928;SDS011;64606;44.062;2.986;2023-09-19T01:51:43;8.73;;;1.60;;
75928;SDS011;64606;44.062;2.986;2023-09-19T01:54:10;5.03;;;1.40;;
75928;SDS011;64606;44.062;2.986;2023-09-19T01:56:42;5.85;;;1.10;;
75928;SDS011;64606;44.062;2.986;2023-09-19T01:59:16;4.55;;;1.20;;
75928;SDS011;64606;44.062;2.986;2023-09-19T02:01:42;6.20;;;1.20;;
75928;SDS011;64606;44.062;2.986;2023-09-19T02:04:10;5.32;;;1.23;;
75928;SDS011;64606;44.062;2.986;2023-09-19T02:06:39;7.97;;;1.23;;
75928;SDS011;64606;44.062;2.986;2023-09-19T02:09:06;5.60;;;1.38;;
75928;SDS011;64606;44.062;2.986;2023-09-19T02:11:32;3.28;;;1.00;;
75928;SDS011;64606;44.062;2.986;2023-09-19T02:13:58;4.25;;;1.15;;
75928;SDS011;64606;44.062;2.986;2023-09-19T02:16:24;5.32;;;1.10;;
75928;SDS011;64606;44.062;2.986;2023-09-19T02:18:51;5.70;;;1.00;;
75928;SDS011;64606;44.062;2.986;2023-09-19T02:21:17;5.15;;;1.30;;
75928;SDS011;64606;44.062;2.986;2023-09-19T02:23:44;5.68;;;1.00;;
75928;SDS011;64606;44.062;2.986;2023-09-19T02:26:12;3.83;;;1.20;;
75928;SDS011;64606;44.062;2.986;2023-09-19T02:28:39;4.85;;;1.02;;
75928;SDS011;64606;44.062;2.986;2023-09-19T02:31:05;7.60;;;1.77;;
75928;SDS011;64606;44.062;2.986;2023-09-19T02:33:31;6.13;;;1.35;;
75928;SDS011;64606;44.062;2.986;2023-09-19T02:35:57;5.40;;;1.45;;
75928;SDS011;64606;44.062;2.986;2023-09-19T02:38:26;4.30;;;1.50;;
75928;SDS011;64606;44.062;2.986;2023-09-19T02:40:52;5.72;;;1.83;;
75928;SDS011;64606;44.062;2.986;2023-09-19T02:43:20;10.20;;;1.50;;
75928;SDS011;64606;44.062;2.986;2023-09-19T02:45:46;6.93;;;1.50;;
75928;SDS011;64606;44.062;2.986;2023-09-19T02:48:15;10.30;;;2.13;;
75928;SDS011;64606;44.062;2.986;2023-09-19T02:50:41;9.02;;;1.52;;
75928;SDS011;64606;44.062;2.986;2023-09-19T02:53:08;7.05;;;1.30;;
75928;SDS011;64606;44.062;2.986;2023-09-19T02:55:37;6.78;;;1.05;;
75928;SDS011;64606;44.062;2.986;2023-09-19T02:58:05;5.57;;;1.20;;
75928;SDS011;64606;44.062;2.986;2023-09-19T03:00:36;8.13;;;1.15;;
75928;SDS011;64606;44.062;2.986;2023-09-19T03:03:03;6.88;;;1.23;;
75928;SDS011;64606;44.062;2.986;2023-09-19T03:05:31;5.10;;;1.50;;
75928;SDS011;64606;44.062;2.986;2023-09-19T03:07:58;7.57;;;1.40;;
75928;SDS011;64606;44.062;2.986;2023-09-19T03:10:26;5.20;;;0.98;;
75928;SDS011;64606;44.062;2.986;2023-09-19T03:12:53;3.70;;;0.95;;
75928;SDS011;64606;44.062;2.986;2023-09-19T03:15:19;8.52;;;1.40;;
75928;SDS011;64606;44.062;2.986;2023-09-19T03:17:46;4.72;;;1.30;;
75928;SDS011;64606;44.062;2.986;2023-09-19T03:20:12;6.80;;;1.30;;
75928;SDS011;64606;44.062;2.986;2023-09-19T03:22:39;5.03;;;1.23;;
75928;SDS011;64606;44.062;2.986;2023-09-19T03:25:06;7.45;;;1.67;;
75928;SDS011;64606;44.062;2.986;2023-09-19T03:27:36;2.95;;;1.05;;
75928;SDS011;64606;44.062;2.986;2023-09-19T03:30:03;9.00;;;1.50;;
75928;SDS011;64606;44.062;2.986;2023-09-19T03:32:33;5.97;;;1.15;;
75928;SDS011;64606;44.062;2.986;2023-09-19T03:35:00;4.28;;;1.40;;
75928;SDS011;64606;44.062;2.986;2023-09-19T03:37:26;4.60;;;1.55;;
75928;SDS011;64606;44.062;2.986;2023-09-19T03:39:52;9.23;;;1.55;;
75928;SDS011;64606;44.062;2.986;2023-09-19T03:42:18;6.80;;;1.80;;
75928;SDS011;64606;44.062;2.986;2023-09-19T03:44:50;6.07;;;1.70;;
75928;SDS011;64606;44.062;2.986;2023-09-19T03:47:17;6.00;;;1.40;;
75928;SDS011;64606;44.062;2.986;2023-09-19T03:49:44;8.45;;;1.55;;
75928;SDS011;64606;44.062;2.986;2023-09-19T03:52:10;6.30;;;1.67;;
75928;SDS011;64606;44.062;2.986;2023-09-19T03:54:36;9.55;;;1.67;;
75928;SDS011;64606;44.062;2.986;2023-09-19T03:57:02;7.55;;;1.85;;
75928;SDS011;64606;44.062;2.986;2023-09-19T03:59:29;7.40;;;1.75;;
75928;SDS011;64606;44.062;2.986;2023-09-19T04:01:55;8.18;;;1.40;;
75928;SDS011;64606;44.062;2.986;2023-09-19T04:04:23;4.90;;;1.30;;
75928;SDS011;64606;44.062;2.986;2023-09-19T04:06:50;6.10;;;1.40;;
75928;SDS011;64606;44.062;2.986;2023-09-19T04:09:17;6.57;;;1.40;;
75928;SDS011;64606;44.062;2.986;2023-09-19T04:11:43;4.25;;;1.33;;
75928;SDS011;64606;44.062;2.986;2023-09-19T04:14:09;3.80;;;1.20;;
75928;SDS011;64606;44.062;2.986;2023-09-19T04:16:36;5.45;;;1.40;;
75928;SDS011;64606;44.062;2.986;2023-09-19T04:19:02;2.30;;;1.05;;
75928;SDS011;64606;44.062;2.986;2023-09-19T04:21:28;6.10;;;1.52;;
75928;SDS011;64606;44.062;2.986;2023-09-19T04:23:55;6.95;;;1.60;;
75928;SDS011;64606;44.062;2.986;2023-09-19T04:26:21;7.40;;;1.33;;
75928;SDS011;64606;44.062;2.986;2023-09-19T04:28:47;8.10;;;2.08;;
75928;SDS011;64606;44.062;2.986;2023-09-19T04:31:13;5.68;;;1.45;;
75928;SDS011;64606;44.062;2.986;2023-09-19T04:33:39;5.78;;;1.90;;
75928;SDS011;64606;44.062;2.986;2023-09-19T04:36:06;6.88;;;1.63;;
75928;SDS011;64606;44.062;2.986;2023-09-19T04:38:32;5.85;;;1.73;;
75928;SDS011;64606;44.062;2.986;2023-09-19T04:40:58;5.75;;;1.75;;
75928;SDS011;64606;44.062;2.986;2023-09-19T04:43:24;8.65;;;1.67;;
75928;SDS011;64606;44.062;2.986;2023-09-19T04:45:50;5.72;;;1.38;;
75928;SDS011;64606;44.062;2.986;2023-09-19T04:48:21;3.45;;;1.25;;
75928;SDS011;64606;44.062;2.986;2023-09-19T04:50:49;6.60;;;1.50;;
75928;SDS011;64606;44.062;2.986;2023-09-19T04:53:16;4.50;;;1.10;;
75928;SDS011;64606;44.062;2.986;2023-09-19T04:55:42;8.88;;;1.60;;
75928;SDS011;64606;44.062;2.986;2023-09-19T04:58:08;6.60;;;1.60;;
75928;SDS011;64606;44.062;2.986;2023-09-19T05:00:35;9.23;;;1.48;;
75928;SDS011;64606;44.062;2.986;2023-09-19T05:03:01;8.30;;;1.88;;
75928;SDS011;64606;44.062;2.986;2023-09-19T05:05:29;7.22;;;1.67;;
75928;SDS011;64606;44.062;2.986;2023-09-19T05:07:55;6.47;;;1.60;;
75928;SDS011;64606;44.062;2.986;2023-09-19T05:10:22;8.35;;;2.03;;
75928;SDS011;64606;44.062;2.986;2023-09-19T05:12:48;6.38;;;1.80;;
75928;SDS011;64606;44.062;2.986;2023-09-19T05:15:16;6.55;;;1.52;;
75928;SDS011;64606;44.062;2.986;2023-09-19T05:17:47;7.88;;;2.03;;
75928;SDS011;64606;44.062;2.986;2023-09-19T05:20:15;10.85;;;1.70;;
75928;SDS011;64606;44.062;2.986;2023-09-19T05:22:41;5.60;;;2.03;;
75928;SDS011;64606;44.062;2.986;2023-09-19T05:25:08;12.38;;;2.15;;
75928;SDS011;64606;44.062;2.986;2023-09-19T05:27:35;12.20;;;2.25;;
75928;SDS011;64606;44.062;2.986;2023-09-19T05:30:01;9.57;;;2.10;;
75928;SDS011;64606;44.062;2.986;2023-09-19T05:32:28;12.27;;;1.90;;
75928;SDS011;64606;44.062;2.986;2023-09-19T05:34:54;9.77;;;2.30;;
75928;SDS011;64606;44.062;2.986;2023-09-19T05:37:21;9.98;;;2.22;;
75928;SDS011;64606;44.062;2.986;2023-09-19T05:39:48;3.67;;;1.40;;
75928;SDS011;64606;44.062;2.986;2023-09-19T05:42:14;7.82;;;2.28;;
75928;SDS011;64606;44.062;2.986;2023-09-19T05:44:40;8.02;;;1.90;;
75928;SDS011;64606;44.062;2.986;2023-09-19T05:47:06;10.77;;;2.28;;
75928;SDS011;64606;44.062;2.986;2023-09-19T05:49:34;8.25;;;1.83;;
75928;SDS011;64606;44.062;2.986;2023-09-19T05:52:06;6.82;;;2.50;;
75928;SDS011;64606;44.062;2.986;2023-09-19T05:54:33;12.00;;;2.35;;
75928;SDS011;64606;44.062;2.986;2023-09-19T05:56:59;11.80;;;2.55;;
75928;SDS011;64606;44.062;2.986;2023-09-19T05:59:26;17.63;;;3.03;;
75928;SDS011;64606;44.062;2.986;2023-09-19T06:01:53;13.13;;;3.40;;
75928;SDS011;64606;44.062;2.986;2023-09-19T06:04:19;15.82;;;2.88;;
75928;SDS011;64606;44.062;2.986;2023-09-19T06:06:45;9.15;;;2.50;;
75928;SDS011;64606;44.062;2.986;2023-09-19T06:09:13;6.40;;;1.80;;
75928;SDS011;64606;44.062;2.986;2023-09-19T06:11:42;10.40;;;2.20;;
75928;SDS011;64606;44.062;2.986;2023-09-19T06:14:08;6.75;;;1.80;;
75928;SDS011;64606;44.062;2.986;2023-09-19T06:16:35;4.25;;;1.40;;
75928;SDS011;64606;44.062;2.986;2023-09-19T06:19:06;12.38;;;2.30;;
75928;SDS011;64606;44.062;2.986;2023-09-19T06:21:34;8.52;;;2.53;;
75928;SDS011;64606;44.062;2.986;2023-09-19T06:24:00;8.10;;;2.28;;
75928;SDS011;64606;44.062;2.986;2023-09-19T06:26:26;11.48;;;2.28;;
75928;SDS011;64606;44.062;2.986;2023-09-19T06:28:52;7.22;;;1.83;;
75928;SDS011;64606;44.062;2.986;2023-09-19T06:31:18;10.82;;;2.00;;
75928;SDS011;64606;44.062;2.986;2023-09-19T06:33:47;10.55;;;1.80;;
75928;SDS011;64606;44.062;2.986;2023-09-19T06:36:14;9.75;;;2.08;;
75928;SDS011;64606;44.062;2.986;2023-09-19T06:38:40;7.00;;;1.83;;
75928;SDS011;64606;44.062;2.986;2023-09-19T06:41:06;5.35;;;1.65;;
75928;SDS011;64606;44.062;2.986;2023-09-19T06:43:33;11.90;;;2.13;;
75928;SDS011;64606;44.062;2.986;2023-09-19T06:46:00;7.05;;;1.70;;
75928;SDS011;64606;44.062;2.986;2023-09-19T06:48:27;5.78;;;1.50;;
75928;SDS011;64606;44.062;2.986;2023-09-19T06:50:58;9.90;;;2.20;;
75928;SDS011;64606;44.062;2.986;2023-09-19T06:53:30;6.47;;;1.88;;
75928;SDS011;64606;44.062;2.986;2023-09-19T06:55:57;6.93;;;1.75;;
75928;SDS011;64606;44.062;2.986;2023-09-19T06:58:23;7.95;;;1.80;;
75928;SDS011;64606;44.062;2.986;2023-09-19T07:00:49;5.70;;;1.80;;
75928;SDS011;64606;44.062;2.986;2023-09-19T07:03:16;9.65;;;2.15;;
75928;SDS011;64606;44.062;2.986;2023-09-19T07:05:43;8.50;;;1.83;;
75928;SDS011;64606;44.062;2.986;2023-09-19T07:08:10;6.10;;;1.38;;
75928;SDS011;64606;44.062;2.986;2023-09-19T07:10:38;5.68;;;1.60;;
75928;SDS011;64606;44.062;2.986;2023-09-19T07:13:22;8.63;;;1.65;;
75928;SDS011;64606;44.062;2.986;2023-09-19T07:15:50;8.45;;;2.05;;
75928;SDS011;64606;44.062;2.986;2023-09-19T07:18:16;14.18;;;2.38;;
75928;SDS011;64606;44.062;2.986;2023-09-19T07:20:43;9.48;;;1.77;;
75928;SDS011;64606;44.062;2.986;2023-09-19T07:23:18;6.80;;;1.80;;
75928;SDS011;64606;44.062;2.986;2023-09-19T07:25:47;8.70;;;2.53;;
75928;SDS011;64606;44.062;2.986;2023-09-19T07:28:13;9.10;;;1.98;;
75928;SDS011;64606;44.062;2.986;2023-09-19T07:30:40;7.03;;;1.27;;
75928;SDS011;64606;44.062;2.986;2023-09-19T07:33:06;7.22;;;1.90;;
75928;SDS011;64606;44.062;2.986;2023-09-19T07:35:36;9.07;;;1.88;;
75928;SDS011;64606;44.062;2.986;2023-09-19T07:38:05;10.20;;;1.83;;
75928;SDS011;64606;44.062;2.986;2023-09-19T07:40:31;5.38;;;1.25;;
75928;SDS011;64606;44.062;2.986;2023-09-19T07:42:57;10.48;;;2.28;;
75928;SDS011;64606;44.062;2.986;2023-09-19T07:45:30;5.32;;;1.88;;
75928;SDS011;64606;44.062;2.986;2023-09-19T07:47:56;8.20;;;1.58;;
75928;SDS011;64606;44.062;2.986;2023-09-19T07:50:23;7.03;;;2.03;;
75928;SDS011;64606;44.062;2.986;2023-09-19T07:52:51;3.13;;;1.00;;
75928;SDS011;64606;44.062;2.986;2023-09-19T07:55:18;9.48;;;1.52;;
75928;SDS011;64606;44.062;2.986;2023-09-19T07:57:48;3.38;;;1.20;;
75928;SDS011;64606;44.062;2.986;2023-09-19T08:00:15;3.70;;;0.82;;
75928;SDS011;64606;44.062;2.986;2023-09-19T08:02:41;3.38;;;1.15;;
75928;SDS011;64606;44.062;2.986;2023-09-19T08:05:08;3.55;;;1.15;;
75928;SDS011;64606;44.062;2.986;2023-09-19T08:07:38;6.22;;;1.42;;
75928;SDS011;64606;44.062;2.986;2023-09-19T08:10:05;5.43;;;1.35;;
75928;SDS011;64606;44.062;2.986;2023-09-19T08:12:41;4.22;;;1.25;;
75928;SDS011;64606;44.062;2.986;2023-09-19T08:15:15;14.23;;;2.30;;
75928;SDS011;64606;44.062;2.986;2023-09-19T08:17:41;17.00;;;2.92;;
75928;SDS011;64606;44.062;2.986;2023-09-19T08:20:08;5.18;;;1.10;;
75928;SDS011;64606;44.062;2.986;2023-09-19T08:22:42;4.90;;;1.15;;
75928;SDS011;64606;44.062;2.986;2023-09-19T08:25:08;3.08;;;1.17;;
75928;SDS011;64606;44.062;2.986;2023-09-19T08:27:36;5.28;;;1.30;;
75928;SDS011;64606;44.062;2.986;2023-09-19T08:30:02;3.90;;;1.05;;
75928;SDS011;64606;44.062;2.986;2023-09-19T08:32:28;2.13;;;1.00;;
75928;SDS011;64606;44.062;2.986;2023-09-19T08:34:54;2.60;;;1.10;;
75928;SDS011;64606;44.062;2.986;2023-09-19T08:37:21;3.38;;;1.20;;
75928;SDS011;64606;44.062;2.986;2023-09-19T08:39:47;3.90;;;1.20;;
75928;SDS011;64606;44.062;2.986;2023-09-19T08:42:13;3.10;;;0.98;;
75928;SDS011;64606;44.062;2.986;2023-09-19T08:44:41;2.33;;;1.10;;
75928;SDS011;64606;44.062;2.986;2023-09-19T08:47:09;4.28;;;1.40;;
75928;SDS011;64606;44.062;2.986;2023-09-19T08:49:41;4.22;;;1.00;;
75928;SDS011;64606;44.062;2.986;2023-09-19T08:52:22;4.32;;;1.30;;
75928;SDS011;64606;44.062;2.986;2023-09-19T08:54:56;4.10;;;1.30;;
75928;SDS011;64606;44.062;2.986;2023-09-19T08:59:52;6.30;;;1.73;;
75928;SDS011;64606;44.062;2.986;2023-09-19T09:02:19;3.97;;;1.20;;
75928;SDS011;64606;44.062;2.986;2023-09-19T09:04:46;4.90;;;1.00;;
75928;SDS011;64606;44.062;2.986;2023-09-19T09:07:15;3.72;;;1.10;;
75928;SDS011;64606;44.062;2.986;2023-09-19T09:09:44;5.45;;;1.30;;
75928;SDS011;64606;44.062;2.986;2023-09-19T09:12:14;2.90;;;1.02;;
75928;SDS011;64606;44.062;2.986;2023-09-19T09:14:44;4.65;;;1.15;;
75928;SDS011;64606;44.062;2.986;2023-09-19T09:17:14;3.63;;;1.05;;
75928;SDS011;64606;44.062;2.986;2023-09-19T09:19:40;5.03;;;1.17;;
75928;SDS011;64606;44.062;2.986;2023-09-19T09:22:10;5.00;;;1.20;;
75928;SDS011;64606;44.062;2.986;2023-09-19T09:24:37;3.25;;;1.00;;
75928;SDS011;64606;44.062;2.986;2023-09-19T09:27:05;4.85;;;0.95;;
75928;SDS011;64606;44.062;2.986;2023-09-19T09:29:53;5.45;;;1.20;;
75928;SDS011;64606;44.062;2.986;2023-09-19T09:32:24;2.90;;;0.98;;
75928;SDS011;64606;44.062;2.986;2023-09-19T09:34:51;5.35;;;1.30;;
75928;SDS011;64606;44.062;2.986;2023-09-19T09:37:18;3.60;;;1.00;;
75928;SDS011;64606;44.062;2.986;2023-09-19T09:39:55;3.80;;;1.55;;
75928;SDS011;64606;44.062;2.986;2023-09-19T09:42:35;3.88;;;1.20;;
75928;SDS011;64606;44.062;2.986;2023-09-19T09:45:21;2.15;;;0.77;;
75928;SDS011;64606;44.062;2.986;2023-09-19T09:48:02;4.18;;;1.13;;
75928;SDS011;64606;44.062;2.986;2023-09-19T09:50:35;2.92;;;1.00;;
75928;SDS011;64606;44.062;2.986;2023-09-19T09:53:29;2.88;;;1.20;;
75928;SDS011;64606;44.062;2.986;2023-09-19T09:56:01;2.83;;;1.05;;
75928;SDS011;64606;44.062;2.986;2023-09-19T09:58:31;2.20;;;0.93;;
75928;SDS011;64606;44.062;2.986;2023-09-19T10:00:57;3.75;;;1.10;;
75928;SDS011;64606;44.062;2.986;2023-09-19T10:03:38;2.38;;;1.02;;
75928;SDS011;64606;44.062;2.986;2023-09-19T10:06:14;3.90;;;1.10;;
75928;SDS011;64606;44.062;2.986;2023-09-19T10:14:02;3.08;;;1.30;;
75928;SDS011;64606;44.062;2.986;2023-09-19T10:16:31;3.15;;;1.30;;
75928;SDS011;64606;44.062;2.986;2023-09-19T10:18:58;6.00;;;1.20;;
75928;SDS011;64606;44.062;2.986;2023-09-19T10:21:26;3.35;;;1.33;;
75928;SDS011;64606;44.062;2.986;2023-09-19T10:23:55;1.70;;;1.10;;
75928;SDS011;64606;44.062;2.986;2023-09-19T10:26:25;3.30;;;1.40;;
75928;SDS011;64606;44.062;2.986;2023-09-19T10:28:51;5.03;;;1.10;;
75928;SDS011;64606;44.062;2.986;2023-09-19T10:31:20;3.38;;;1.20;;
75928;SDS011;64606;44.062;2.986;2023-09-19T10:33:49;5.43;;;1.45;;
75928;SDS011;64606;44.062;2.986;2023-09-19T10:36:15;2.50;;;1.30;;
75928;SDS011;64606;44.062;2.986;2023-09-19T10:38:43;5.18;;;1.45;;
75928;SDS011;64606;44.062;2.986;2023-09-19T10:41:09;3.78;;;1.20;;
75928;SDS011;64606;44.062;2.986;2023-09-19T10:43:36;3.63;;;1.60;;
75928;SDS011;64606;44.062;2.986;2023-09-19T10:46:07;5.82;;;1.70;;
75928;SDS011;64606;44.062;2.986;2023-09-19T10:48:37;3.17;;;1.35;;
75928;SDS011;64606;44.062;2.986;2023-09-19T10:51:14;3.15;;;1.10;;
75928;SDS011;64606;44.062;2.986;2023-09-19T10:53:49;3.35;;;1.30;;
75928;SDS011;64606;44.062;2.986;2023-09-19T10:56:21;2.08;;;1.10;;
75928;SDS011;64606;44.062;2.986;2023-09-19T10:58:49;3.92;;;1.40;;
75928;SDS011;64606;44.062;2.986;2023-09-19T11:01:16;2.65;;;1.17;;
75928;SDS011;64606;44.062;2.986;2023-09-19T11:03:43;4.20;;;1.17;;
75928;SDS011;64606;44.062;2.986;2023-09-19T11:11:50;3.67;;;1.48;;
75928;SDS011;64606;44.062;2.986;2023-09-19T11:22:21;3.80;;;1.48;;
75928;SDS011;64606;44.062;2.986;2023-09-19T11:24:47;3.15;;;1.10;;
75928;SDS011;64606;44.062;2.986;2023-09-19T11:27:16;3.60;;;1.60;;
75928;SDS011;64606;44.062;2.986;2023-09-19T11:29:43;2.50;;;1.30;;
75928;SDS011;64606;44.062;2.986;2023-09-19T11:32:10;5.72;;;1.40;;
75928;SDS011;64606;44.062;2.986;2023-09-19T11:47:55;6.97;;;1.50;;
75928;SDS011;64606;44.062;2.986;2023-09-19T11:50:23;3.70;;;1.52;;
75928;SDS011;64606;44.062;2.986;2023-09-19T11:52:50;4.22;;;1.30;;
75928;SDS011;64606;44.062;2.986;2023-09-19T11:55:18;5.53;;;1.33;;
75928;SDS011;64606;44.062;2.986;2023-09-19T11:57:47;3.30;;;1.35;;
75928;SDS011;64606;44.062;2.986;2023-09-19T12:00:19;6.28;;;1.95;;
75928;SDS011;64606;44.062;2.986;2023-09-19T12:02:46;3.72;;;1.30;;
75928;SDS011;64606;44.062;2.986;2023-09-19T12:05:13;4.78;;;1.15;;
75928;SDS011;64606;44.062;2.986;2023-09-19T12:07:43;3.97;;;1.35;;
75928;SDS011;64606;44.062;2.986;2023-09-19T12:10:13;1.75;;;1.15;;
75928;SDS011;64606;44.062;2.986;2023-09-19T12:12:46;4.30;;;1.23;;
75928;SDS011;64606;44.062;2.986;2023-09-19T12:15:24;3.13;;;1.27;;
75928;SDS011;64606;44.062;2.986;2023-09-19T12:17:53;6.40;;;1.40;;
75928;SDS011;64606;44.062;2.986;2023-09-19T12:20:20;4.18;;;1.38;;
75928;SDS011;64606;44.062;2.986;2023-09-19T12:22:46;3.83;;;1.42;;
75928;SDS011;64606;44.062;2.986;2023-09-19T12:25:15;4.13;;;1.45;;
75928;SDS011;64606;44.062;2.986;2023-09-19T12:27:43;5.55;;;1.55;;
75928;SDS011;64606;44.062;2.986;2023-09-19T12:30:10;3.13;;;1.40;;
75928;SDS011;64606;44.062;2.986;2023-09-19T12:32:39;2.75;;;1.33;;
75928;SDS011;64606;44.062;2.986;2023-09-19T12:35:09;6.57;;;1.60;;
75928;SDS011;64606;44.062;2.986;2023-09-19T12:37:44;5.57;;;1.40;;
75928;SDS011;64606;44.062;2.986;2023-09-19T12:40:13;3.08;;;1.10;;
75928;SDS011;64606;44.062;2.986;2023-09-19T12:42:45;4.43;;;1.20;;
75928;SDS011;64606;44.062;2.986;2023-09-19T12:45:12;2.60;;;1.45;;
75928;SDS011;64606;44.062;2.986;2023-09-19T12:47:40;3.97;;;1.42;;
75928;SDS011;64606;44.062;2.986;2023-09-19T12:50:11;4.60;;;1.20;;
75928;SDS011;64606;44.062;2.986;2023-09-19T12:52:47;2.58;;;1.17;;
75928;SDS011;64606;44.062;2.986;2023-09-19T12:55:29;2.83;;;1.42;;
75928;SDS011;64606;44.062;2.986;2023-09-19T12:58:13;2.78;;;1.15;;
75928;SDS011;64606;44.062;2.986;2023-09-19T13:00:41;5.50;;;1.20;;
75928;SDS011;64606;44.062;2.986;2023-09-19T13:03:15;3.40;;;1.48;;
75928;SDS011;64606;44.062;2.986;2023-09-19T13:08:19;3.60;;;1.00;;
75928;SDS011;64606;44.062;2.986;2023-09-19T13:11:02;3.35;;;1.45;;
75928;SDS011;64606;44.062;2.986;2023-09-19T13:13:29;2.58;;;1.10;;
75928;SDS011;64606;44.062;2.986;2023-09-19T13:15:55;4.25;;;1.13;;
75928;SDS011;64606;44.062;2.986;2023-09-19T13:18:26;4.57;;;1.30;;
75928;SDS011;64606;44.062;2.986;2023-09-19T13:21:08;2.33;;;1.35;;
75928;SDS011;64606;44.062;2.986;2023-09-19T13:23:37;3.47;;;1.13;;
75928;SDS011;64606;44.062;2.986;2023-09-19T13:26:05;3.20;;;1.55;;
75928;SDS011;64606;44.062;2.986;2023-09-19T13:28:31;3.60;;;1.25;;
75928;SDS011;64606;44.062;2.986;2023-09-19T13:30:59;2.88;;;1.23;;
75928;SDS011;64606;44.062;2.986;2023-09-19T13:33:25;2.53;;;1.02;;
75928;SDS011;64606;44.062;2.986;2023-09-19T13:35:51;3.72;;;1.48;;
75928;SDS011;64606;44.062;2.986;2023-09-19T13:38:18;2.17;;;1.00;;
75928;SDS011;64606;44.062;2.986;2023-09-19T13:40:47;3.53;;;1.20;;
75928;SDS011;64606;44.062;2.986;2023-09-19T13:43:13;2.83;;;1.10;;
75928;SDS011;64606;44.062;2.986;2023-09-19T13:45:40;6.03;;;1.60;;
75928;SDS011;64606;44.062;2.986;2023-09-19T13:48:09;2.00;;;0.93;;
75928;SDS011;64606;44.062;2.986;2023-09-19T13:50:38;2.78;;;1.10;;
75928;SDS011;64606;44.062;2.986;2023-09-19T13:53:07;4.95;;;1.20;;
75928;SDS011;64606;44.062;2.986;2023-09-19T13:55:34;3.70;;;1.40;;
75928;SDS011;64606;44.062;2.986;2023-09-19T13:58:02;3.72;;;1.40;;
75928;SDS011;64606;44.062;2.986;2023-09-19T14:00:32;3.78;;;1.30;;
75928;SDS011;64606;44.062;2.986;2023-09-19T14:03:01;3.70;;;1.20;;
75928;SDS011;64606;44.062;2.986;2023-09-19T14:05:28;2.65;;;1.10;;
75928;SDS011;64606;44.062;2.986;2023-09-19T14:07:55;4.95;;;1.58;;
75928;SDS011;64606;44.062;2.986;2023-09-19T14:10:21;3.67;;;1.38;;
75928;SDS011;64606;44.062;2.986;2023-09-19T14:12:47;2.90;;;1.27;;
75928;SDS011;64606;44.062;2.986;2023-09-19T14:15:13;3.28;;;1.13;;
75928;SDS011;64606;44.062;2.986;2023-09-19T14:17:40;3.78;;;1.10;;
75928;SDS011;64606;44.062;2.986;2023-09-19T14:20:07;2.72;;;1.33;;
75928;SDS011;64606;44.062;2.986;2023-09-19T14:22:35;4.35;;;1.52;;
75928;SDS011;64606;44.062;2.986;2023-09-19T14:25:02;3.17;;;1.42;;
75928;SDS011;64606;44.062;2.986;2023-09-19T14:27:29;2.08;;;1.00;;
75928;SDS011;64606;44.062;2.986;2023-09-19T14:29:55;2.35;;;1.00;;
75928;SDS011;64606;44.062;2.986;2023-09-19T14:32:24;3.60;;;1.73;;
75928;SDS011;64606;44.062;2.986;2023-09-19T14:34:51;4.28;;;1.15;;
75928;SDS011;64606;44.062;2.986;2023-09-19T14:37:17;3.83;;;1.58;;
75928;SDS011;64606;44.062;2.986;2023-09-19T14:39:46;3.00;;;1.10;;
75928;SDS011;64606;44.062;2.986;2023-09-19T14:42:13;2.28;;;1.20;;
75928;SDS011;64606;44.062;2.986;2023-09-19T14:44:43;4.35;;;1.20;;
75928;SDS011;64606;44.062;2.986;2023-09-19T14:47:09;2.25;;;1.33;;
75928;SDS011;64606;44.062;2.986;2023-09-19T14:49:38;3.10;;;1.33;;
75928;SDS011;64606;44.062;2.986;2023-09-19T14:52:08;4.20;;;1.45;;
75928;SDS011;64606;44.062;2.986;2023-09-19T14:54:35;4.18;;;1.30;;
75928;SDS011;64606;44.062;2.986;2023-09-19T14:57:03;3.13;;;1.10;;
75928;SDS011;64606;44.062;2.986;2023-09-19T14:59:30;2.03;;;1.20;;
75928;SDS011;64606;44.062;2.986;2023-09-19T15:01:57;2.58;;;1.23;;
75928;SDS011;64606;44.062;2.986;2023-09-19T15:04:23;2.95;;;1.20;;
75928;SDS011;64606;44.062;2.986;2023-09-19T15:06:49;1.95;;;1.25;;
75928;SDS011;64606;44.062;2.986;2023-09-19T15:09:20;3.80;;;1.55;;
75928;SDS011;64606;44.062;2.986;2023-09-19T15:11:47;2.30;;;1.10;;
75928;SDS011;64606;44.062;2.986;2023-09-19T15:14:13;2.88;;;1.20;;
75928;SDS011;64606;44.062;2.986;2023-09-19T15:16:39;2.58;;;1.20;;
75928;SDS011;64606;44.062;2.986;2023-09-19T15:19:08;5.63;;;1.35;;
75928;SDS011;64606;44.062;2.986;2023-09-19T15:21:35;3.88;;;1.30;;
75928;SDS011;64606;44.062;2.986;2023-09-19T15:24:05;4.78;;;1.38;;
75928;SDS011;64606;44.062;2.986;2023-09-19T15:26:35;2.83;;;1.40;;
75928;SDS011;64606;44.062;2.986;2023-09-19T15:29:04;2.80;;;1.15;;
75928;SDS011;64606;44.062;2.986;2023-09-19T15:31:31;3.15;;;1.30;;
75928;SDS011;64606;44.062;2.986;2023-09-19T15:33:57;2.38;;;1.15;;
75928;SDS011;64606;44.062;2.986;2023-09-19T15:36:23;3.10;;;1.40;;
75928;SDS011;64606;44.062;2.986;2023-09-19T15:41:32;2.08;;;1.13;;
75928;SDS011;64606;44.062;2.986;2023-09-19T15:43:58;2.40;;;1.40;;
75928;SDS011;64606;44.062;2.986;2023-09-19T15:46:26;3.45;;;1.50;;
75928;SDS011;64606;44.062;2.986;2023-09-19T15:48:53;2.22;;;1.30;;